Time;durP1;ratioP1;P1;durP2;ratioP2;P2;SDS_P1;SDS_P2;PMS_P1;PMS_P2;Temp;Humidity;BMP_temperature;BMP_pressure;BME280_temperature;BME280_humidity;BME280_pressure;Samples;Min_cycle;Max_cycle;Signal;HPM_P1;HPM_P2
2022/09/14 00:02:04;;;;;;;12.40;2.90;;;14.10;99.90;;;;;;5236662;28;20272;-53
2022/09/14 00:04:35;;;;;;;3.10;1.87;;;14.10;99.90;;;;;;5259549;28;20217;-52
2022/09/14 00:07:06;;;;;;;6.13;2.03;;;14.10;99.90;;;;;;5259495;28;20257;-51
2022/09/14 00:09:37;;;;;;;4.90;1.73;;;14.10;99.90;;;;;;5268085;28;21002;-53
2022/09/14 00:12:07;;;;;;;5.70;1.27;;;14.10;99.90;;;;;;5247090;28;20210;-52
2022/09/14 00:14:39;;;;;;;5.17;2.03;;;14.10;99.90;;;;;;5239899;28;20280;-52
2022/09/14 00:17:10;;;;;;;9.63;2.50;;;14.10;99.90;;;;;;5267722;28;20242;-51
2022/09/14 00:19:40;;;;;;;4.93;1.67;;;14.00;99.90;;;;;;5249542;28;20514;-52
2022/09/14 00:22:11;;;;;;;6.13;1.83;;;14.10;99.90;;;;;;5244199;28;20202;-51
2022/09/14 00:24:42;;;;;;;3.47;1.60;;;14.10;99.90;;;;;;5257743;28;20671;-52
2022/09/14 00:27:12;;;;;;;10.63;1.83;;;14.10;99.90;;;;;;5246476;28;20182;-51
2022/09/14 00:29:43;;;;;;;6.60;1.20;;;14.00;99.90;;;;;;5244172;28;20256;-52
2022/09/14 00:32:13;;;;;;;6.67;1.57;;;14.00;99.90;;;;;;5243444;28;20399;-52
2022/09/14 00:34:44;;;;;;;2.57;1.53;;;14.00;99.90;;;;;;5241300;28;20201;-52
2022/09/14 00:37:15;;;;;;;3.30;1.53;;;13.90;99.90;;;;;;5243932;28;20273;-51
2022/09/14 00:39:45;;;;;;;2.43;1.30;;;13.90;99.90;;;;;;5251050;28;20546;-51
2022/09/14 00:42:18;;;;;;;7.33;2.00;;;13.90;99.90;;;;;;5252087;28;20219;-51
2022/09/14 00:44:48;;;;;;;3.73;1.50;;;13.90;99.90;;;;;;5241174;28;20206;-53
2022/09/14 00:47:19;;;;;;;4.60;1.70;;;13.90;99.90;;;;;;5252637;28;20582;-51
2022/09/14 00:49:50;;;;;;;2.27;1.10;;;13.80;99.90;;;;;;5248321;28;20283;-53
2022/09/14 00:52:28;;;;;;;7.30;1.57;;;13.90;99.90;;;;;;5239646;28;20224;-52
2022/09/14 00:55:10;;;;;;;5.07;1.50;;;13.80;99.90;;;;;;5237941;28;20449;-51
2022/09/14 00:57:46;;;;;;;9.50;1.97;;;13.80;99.90;;;;;;5239421;28;20411;-52
2022/09/14 01:00:21;;;;;;;4.20;1.20;;;13.80;99.90;;;;;;5245766;28;20416;-53
2022/09/14 01:02:51;;;;;;;8.13;1.73;;;13.80;99.90;;;;;;5246198;28;20945;-53
2022/09/14 01:05:34;;;;;;;5.83;1.53;;;13.80;99.90;;;;;;5238362;28;20449;-51
2022/09/14 01:08:22;;;;;;;3.33;1.50;;;13.70;99.90;;;;;;5264103;28;20190;-52
2022/09/14 01:11:00;;;;;;;7.40;1.60;;;13.70;99.90;;;;;;5238720;28;20455;-51
2022/09/14 01:13:31;;;;;;;3.87;1.77;;;13.70;99.90;;;;;;5232040;28;20451;-52
2022/09/14 01:16:24;;;;;;;4.17;1.83;;;13.70;99.90;;;;;;5258420;28;20448;-52
2022/09/14 01:19:02;;;;;;;4.67;1.80;;;13.60;99.90;;;;;;5223465;28;20181;-52
2022/09/14 01:21:37;;;;;;;3.50;1.53;;;13.60;99.90;;;;;;5217248;28;20429;-51
2022/09/14 01:24:43;;;;;;;5.40;1.20;;;13.60;99.90;;;;;;5232294;28;20445;-51
2022/09/14 01:27:40;;;;;;;5.40;1.40;;;13.60;99.90;;;;;;5233892;28;20551;-52
2022/09/14 01:30:17;;;;;;;3.77;1.80;;;13.50;99.90;;;;;;5259468;28;20468;-49
2022/09/14 01:32:52;;;;;;;9.03;1.70;;;13.50;99.90;;;;;;5238320;28;20576;-53
2022/09/14 01:35:37;;;;;;;3.77;1.57;;;13.40;99.90;;;;;;5249080;28;20788;-51
2022/09/14 01:38:13;;;;;;;6.30;1.40;;;13.40;99.90;;;;;;5254624;28;20880;-51
2022/09/14 01:40:48;;;;;;;3.97;1.63;;;13.30;99.90;;;;;;5244227;28;20432;-52
2022/09/14 01:43:28;;;;;;;6.10;1.80;;;13.30;99.90;;;;;;5215599;28;20484;-53
2022/09/14 01:46:06;;;;;;;2.67;1.97;;;13.30;99.90;;;;;;5250146;28;20447;-51
2022/09/14 01:48:43;;;;;;;3.80;1.80;;;13.30;99.90;;;;;;5232240;28;20423;-51
2022/09/14 01:51:23;;;;;;;4.53;1.60;;;13.20;99.90;;;;;;5266617;28;20966;-53
2022/09/14 01:54:02;;;;;;;7.93;1.97;;;13.20;99.90;;;;;;5237908;28;20450;-52
2022/09/14 01:56:38;;;;;;;2.70;1.70;;;13.20;99.90;;;;;;5252112;28;20424;-52
2022/09/14 01:59:15;;;;;;;5.27;2.00;;;13.20;99.90;;;;;;5251544;28;20458;-52
2022/09/14 02:01:52;;;;;;;12.93;2.20;;;13.20;99.90;;;;;;5238271;28;20432;-52
2022/09/14 02:05:06;;;;;;;3.70;1.37;;;13.20;99.90;;;;;;5240209;28;20477;-52
2022/09/14 02:07:37;;;;;;;6.60;2.13;;;13.10;99.90;;;;;;5242708;28;20450;-53
2022/09/14 02:10:11;;;;;;;6.50;1.60;;;13.10;99.90;;;;;;5259683;28;20836;-53
2022/09/14 02:12:43;;;;;;;5.73;1.80;;;13.10;99.90;;;;;;5232982;28;20284;-51
2022/09/14 02:15:15;;;;;;;3.23;1.77;;;13.10;99.90;;;;;;5241707;28;20443;-54
2022/09/14 02:17:46;;;;;;;12.20;2.70;;;13.10;99.90;;;;;;5262157;28;20857;-51
2022/09/14 02:20:32;;;;;;;1.50;1.50;;;13.20;99.90;;;;;;5237906;28;20435;-53
2022/09/14 02:23:03;;;;;;;4.37;1.40;;;13.10;99.90;;;;;;5252104;28;20442;-52
2022/09/14 02:25:35;;;;;;;7.63;2.30;;;13.10;99.90;;;;;;5237699;28;20433;-52
2022/09/14 02:28:07;;;;;;;1.47;1.30;;;13.20;99.90;;;;;;5250063;28;20431;-52
2022/09/14 02:31:10;;;;;;;6.27;1.93;;;13.20;99.90;;;;;;5260777;28;20454;-52
2022/09/14 02:33:54;;;;;;;9.63;1.80;;;13.20;99.90;;;;;;5243062;28;20436;-50
2022/09/14 02:36:45;;;;;;;4.77;2.27;;;13.20;99.90;;;;;;5228182;28;20819;-49
2022/09/14 02:39:34;;;;;;;17.43;2.60;;;13.20;99.90;;;;;;5242309;28;20464;-53
2022/09/14 02:42:26;;;;;;;17.50;2.53;;;13.20;99.90;;;;;;5250413;28;20433;-53
2022/09/14 02:45:22;;;;;;;4.00;1.93;;;13.20;99.90;;;;;;5254578;28;20486;-52
2022/09/14 02:48:04;;;;;;;7.57;2.13;;;13.20;99.90;;;;;;5249550;28;20435;-53
2022/09/14 02:51:16;;;;;;;4.27;1.63;;;13.20;99.90;;;;;;5227491;28;20435;-51
2022/09/14 02:53:47;;;;;;;4.73;1.80;;;13.20;99.90;;;;;;5199013;28;20472;-53
2022/09/14 02:56:18;;;;;;;2.87;1.87;;;13.20;99.90;;;;;;5266163;28;20962;-53
2022/09/14 02:58:49;;;;;;;7.83;1.90;;;13.20;99.90;;;;;;5260872;28;20189;-53
2022/09/14 03:01:21;;;;;;;4.77;2.33;;;13.10;99.90;;;;;;5258494;28;20437;-49
2022/09/14 03:03:52;;;;;;;2.03;1.70;;;13.10;99.90;;;;;;5252373;28;20232;-52
2022/09/14 03:06:23;;;;;;;6.93;2.37;;;13.10;99.90;;;;;;5254965;28;20825;-53
2022/09/14 03:08:53;;;;;;;2.57;1.67;;;13.10;99.90;;;;;;5247670;28;20182;-52
2022/09/14 03:11:24;;;;;;;13.70;2.50;;;13.10;99.90;;;;;;5236709;28;20210;-52
2022/09/14 03:13:55;;;;;;;7.73;2.20;;;13.10;99.90;;;;;;5265378;28;20201;-52
2022/09/14 03:16:25;;;;;;;2.47;2.27;;;13.10;99.90;;;;;;5260422;28;20194;-52
2022/09/14 03:18:56;;;;;;;5.63;2.20;;;13.10;99.90;;;;;;5249012;28;20179;-52
2022/09/14 03:21:27;;;;;;;4.67;2.77;;;13.00;99.90;;;;;;5237796;28;20202;-49
2022/09/14 03:23:58;;;;;;;4.03;2.00;;;13.00;99.90;;;;;;5248934;28;20247;-52
2022/09/14 03:26:28;;;;;;;7.13;2.00;;;13.00;99.90;;;;;;5241639;28;20193;-52
2022/09/14 03:28:59;;;;;;;9.67;2.23;;;13.10;99.90;;;;;;5256560;28;20730;-54
2022/09/14 03:31:30;;;;;;;2.73;2.30;;;13.10;99.90;;;;;;5242384;28;20647;-52
2022/09/14 03:34:01;;;;;;;12.10;2.77;;;13.10;99.90;;;;;;5248461;28;20209;-51
2022/09/14 03:36:32;;;;;;;4.47;2.00;;;13.10;99.90;;;;;;5233709;28;20174;-52
2022/09/14 03:39:02;;;;;;;6.60;2.57;;;13.10;99.90;;;;;;5233723;28;20432;-52
2022/09/14 03:41:33;;;;;;;8.40;2.10;;;13.10;99.90;;;;;;5252382;28;20278;-52
2022/09/14 03:44:03;;;;;;;7.43;2.10;;;13.10;99.90;;;;;;5245716;28;20645;-54
2022/09/14 03:46:34;;;;;;;1.83;1.73;;;13.10;99.90;;;;;;5239712;28;20527;-52
2022/09/14 03:49:05;;;;;;;5.40;2.30;;;13.10;99.90;;;;;;5260528;28;20559;-52
2022/09/14 03:51:35;;;;;;;5.50;2.40;;;13.10;99.90;;;;;;5252710;28;20213;-52
2022/09/14 03:54:06;;;;;;;8.00;2.73;;;13.10;99.90;;;;;;5232642;28;20212;-53
2022/09/14 03:56:36;;;;;;;6.40;2.57;;;13.00;99.90;;;;;;5241129;28;20223;-52
2022/09/14 03:59:08;;;;;;;7.27;2.67;;;13.00;99.90;;;;;;5245813;28;20181;-52
2022/09/14 04:01:39;;;;;;;6.23;2.67;;;13.00;99.90;;;;;;5251569;28;20193;-52
2022/09/14 04:04:10;;;;;;;5.93;2.03;;;13.00;99.90;;;;;;5245558;28;20466;-50
2022/09/14 04:06:41;;;;;;;4.47;2.60;;;12.90;99.90;;;;;;5227975;28;20429;-48
2022/09/14 04:09:12;;;;;;;5.03;2.40;;;12.90;99.90;;;;;;5239670;28;20205;-50
2022/09/14 04:11:42;;;;;;;1.63;1.53;;;12.90;99.90;;;;;;5248598;28;20283;-48
2022/09/14 04:14:13;;;;;;;2.73;1.97;;;12.90;99.90;;;;;;5243975;28;20248;-49
2022/09/14 04:16:43;;;;;;;2.80;1.50;;;12.90;99.90;;;;;;5234978;28;20177;-49
2022/09/14 04:19:14;;;;;;;5.97;2.33;;;12.90;99.90;;;;;;5237292;28;20186;-49
2022/09/14 04:21:45;;;;;;;4.53;2.70;;;12.90;99.90;;;;;;5238865;28;20193;-50
2022/09/14 04:24:15;;;;;;;5.40;1.90;;;12.90;99.90;;;;;;5227571;28;20202;-49
2022/09/14 04:26:46;;;;;;;13.27;1.90;;;12.90;99.90;;;;;;5232956;28;20192;-49
2022/09/14 04:29:17;;;;;;;5.47;1.87;;;12.90;99.90;;;;;;5226903;28;20182;-50
2022/09/14 04:31:47;;;;;;;2.30;1.60;;;13.00;99.90;;;;;;5249535;28;20207;-49
2022/09/14 04:34:18;;;;;;;5.07;3.00;;;13.00;99.90;;;;;;5260816;28;20307;-49
2022/09/14 04:36:48;;;;;;;5.33;2.20;;;13.10;99.90;;;;;;5258421;28;20242;-49
2022/09/14 04:39:19;;;;;;;4.17;1.70;;;13.20;99.90;;;;;;5261068;28;20182;-47
2022/09/14 04:41:49;;;;;;;11.93;2.07;;;13.20;99.90;;;;;;5252740;28;20197;-48
2022/09/14 04:44:20;;;;;;;6.20;2.57;;;13.30;99.90;;;;;;5234870;28;20206;-47
2022/09/14 04:46:51;;;;;;;5.43;1.90;;;13.30;99.90;;;;;;5251249;28;20639;-47
2022/09/14 04:49:21;;;;;;;6.23;2.00;;;13.30;99.90;;;;;;5247733;28;20713;-49
2022/09/14 04:51:52;;;;;;;3.53;2.53;;;13.40;99.90;;;;;;5226594;28;20681;-49
2022/09/14 04:54:23;;;;;;;17.00;2.70;;;13.30;99.90;;;;;;5246809;28;20229;-49
2022/09/14 04:56:53;;;;;;;6.87;2.50;;;13.30;99.90;;;;;;5270996;28;20463;-48
2022/09/14 04:59:24;;;;;;;8.40;2.73;;;13.30;99.90;;;;;;5245512;28;20179;-49
2022/09/14 05:01:54;;;;;;;3.07;2.40;;;13.40;99.90;;;;;;5250411;28;20183;-46
2022/09/14 05:04:25;;;;;;;9.83;2.20;;;13.40;99.90;;;;;;5249115;28;20742;-48
2022/09/14 05:06:56;;;;;;;9.27;2.73;;;13.50;99.90;;;;;;5265069;28;20591;-51
2022/09/14 05:09:28;;;;;;;7.80;2.67;;;13.60;99.90;;;;;;5239511;28;20293;-49
2022/09/14 05:11:58;;;;;;;2.90;2.63;;;13.60;99.90;;;;;;5238447;28;20561;-51
2022/09/14 05:14:29;;;;;;;9.90;2.30;;;13.70;99.90;;;;;;5248353;28;20206;-51
2022/09/14 05:17:01;;;;;;;10.60;3.30;;;13.80;99.90;;;;;;5261001;28;20194;-50
2022/09/14 05:19:32;;;;;;;10.87;3.70;;;13.80;99.90;;;;;;5254505;28;20174;-49
2022/09/14 05:22:03;;;;;;;3.00;2.60;;;13.90;99.90;;;;;;5263503;28;20442;-51
2022/09/14 05:24:33;;;;;;;8.00;3.47;;;13.90;99.90;;;;;;5250876;28;20239;-49
2022/09/14 05:27:04;;;;;;;6.33;2.43;;;13.90;99.90;;;;;;5246131;28;20264;-48
2022/09/14 05:29:35;;;;;;;3.00;2.60;;;13.90;99.90;;;;;;5263596;28;20178;-50
2022/09/14 05:32:05;;;;;;;7.90;3.10;;;13.90;99.90;;;;;;5243490;28;20199;-50
2022/09/14 05:34:36;;;;;;;4.43;2.37;;;14.00;99.90;;;;;;5246207;28;20222;-50
2022/09/14 05:37:06;;;;;;;6.83;2.97;;;14.00;99.90;;;;;;5240291;28;20604;-50
2022/09/14 05:39:37;;;;;;;4.80;2.17;;;14.20;99.90;;;;;;5241930;28;20190;-48
2022/09/14 05:42:08;;;;;;;9.20;2.67;;;14.20;99.90;;;;;;5251551;28;20564;-48
2022/09/14 05:44:39;;;;;;;8.23;2.47;;;14.30;99.90;;;;;;5258663;28;20201;-48
2022/09/14 05:47:09;;;;;;;5.93;2.70;;;14.30;99.90;;;;;;5258493;28;20501;-48
2022/09/14 05:49:40;;;;;;;1.97;1.87;;;14.30;99.90;;;;;;5236660;28;20187;-48
2022/09/14 05:52:10;;;;;;;7.40;2.70;;;14.30;99.90;;;;;;5262598;28;20726;-48
2022/09/14 05:54:41;;;;;;;3.20;2.03;;;14.40;99.90;;;;;;5253963;28;20229;-49
2022/09/14 05:57:11;;;;;;;6.93;2.10;;;14.50;99.90;;;;;;5250597;28;20638;-48
2022/09/14 05:59:42;;;;;;;2.70;2.50;;;14.60;99.90;;;;;;5235326;28;20178;-47
2022/09/14 06:02:13;;;;;;;4.30;1.97;;;14.80;99.90;;;;;;5243248;28;20675;-47
2022/09/14 06:04:44;;;;;;;4.63;1.90;;;15.00;99.90;;;;;;5237694;28;20297;-48
2022/09/14 06:07:15;;;;;;;6.67;1.73;;;15.00;99.90;;;;;;5251880;28;20482;-51
2022/09/14 06:09:46;;;;;;;10.20;1.83;;;15.00;99.90;;;;;;5244908;28;20441;-48
2022/09/14 06:12:16;;;;;;;2.57;1.77;;;15.20;99.90;;;;;;5243480;28;20205;-48
2022/09/14 06:14:47;;;;;;;8.33;2.30;;;15.30;99.90;;;;;;5253976;28;20246;-50
2022/09/14 06:17:17;;;;;;;8.80;2.73;;;15.60;99.90;;;;;;5256858;28;20175;-48
2022/09/14 06:19:48;;;;;;;2.60;2.50;;;15.80;99.90;;;;;;5256795;28;20262;-47
2022/09/14 06:22:18;;;;;;;8.80;2.70;;;16.00;99.90;;;;;;5254489;28;20312;-49
2022/09/14 06:24:49;;;;;;;9.60;2.70;;;16.50;99.90;;;;;;5243148;28;20205;-50
2022/09/14 06:27:19;;;;;;;6.60;2.93;;;16.90;99.90;;;;;;5251532;28;20273;-47
2022/09/14 06:29:52;;;;;;;10.13;3.87;;;17.30;99.90;;;;;;5246352;28;20214;-50
2022/09/14 06:32:23;;;;;;;5.23;2.00;;;17.60;99.90;;;;;;5243024;28;20207;-47
2022/09/14 06:34:53;;;;;;;8.17;2.60;;;17.80;99.90;;;;;;5250296;28;20465;-48
2022/09/14 06:37:24;;;;;;;3.50;2.23;;;18.00;99.90;;;;;;5226791;28;20185;-51
2022/09/14 06:39:55;;;;;;;5.60;2.13;;;18.30;99.90;;;;;;5259814;28;20188;-53
2022/09/14 06:42:28;;;;;;;6.90;4.00;;;19.00;99.90;;;;;;5231877;28;20205;-53
2022/09/14 06:44:59;;;;;;;4.17;2.80;;;19.50;99.90;;;;;;5260319;28;20208;-50
2022/09/14 06:47:33;;;;;;;6.07;2.90;;;20.10;99.90;;;;;;5248846;28;20994;-49
2022/09/14 06:50:04;;;;;;;5.90;2.53;;;21.30;99.90;;;;;;5240279;28;20650;-49
2022/09/14 06:52:38;;;;;;;9.63;2.23;;;22.80;94.30;;;;;;5255805;28;20491;-48
2022/09/14 06:55:08;;;;;;;6.07;2.80;;;24.70;81.50;;;;;;5238037;28;20450;-49
2022/09/14 06:57:39;;;;;;;6.43;2.57;;;25.40;68.40;;;;;;5229185;28;20440;-47
2022/09/14 07:00:10;;;;;;;4.73;2.50;;;25.00;64.50;;;;;;5237965;28;20182;-50
2022/09/14 07:02:41;;;;;;;12.53;2.17;;;24.40;65.30;;;;;;5249577;28;20594;-52
2022/09/14 07:05:12;;;;;;;6.20;2.70;;;23.50;67.20;;;;;;5227755;28;20888;-50
2022/09/14 07:07:43;;;;;;;2.93;2.33;;;22.90;70.50;;;;;;5240871;28;20417;-49
2022/09/14 07:10:14;;;;;;;3.70;2.20;;;22.40;72.20;;;;;;5230121;28;20888;-51
2022/09/14 07:12:44;;;;;;;6.07;2.30;;;21.80;75.50;;;;;;5262203;28;20301;-49
2022/09/14 07:15:15;;;;;;;6.97;1.90;;;21.10;77.10;;;;;;5245551;28;20251;-48
2022/09/14 07:17:46;;;;;;;8.80;2.13;;;20.50;80.60;;;;;;5255585;28;20244;-49
2022/09/14 07:20:17;;;;;;;3.57;1.83;;;20.70;82.10;;;;;;5227227;28;20666;-50
2022/09/14 07:22:47;;;;;;;7.03;2.17;;;20.40;83.90;;;;;;5241996;28;20552;-50
2022/09/14 07:25:18;;;;;;;8.33;2.13;;;20.10;86.70;;;;;;5228728;28;20618;-49
2022/09/14 07:27:48;;;;;;;8.47;2.00;;;20.10;88.70;;;;;;5252950;28;20247;-48
2022/09/14 07:30:19;;;;;;;2.43;1.60;;;21.00;88.40;;;;;;5263456;28;20188;-48
2022/09/14 07:32:49;;;;;;;8.20;2.30;;;22.90;80.30;;;;;;5250065;28;20243;-49
2022/09/14 07:35:20;;;;;;;6.80;2.40;;;24.10;73.10;;;;;;5244612;28;20183;-55
2022/09/14 07:37:50;;;;;;;2.20;2.07;;;24.60;67.70;;;;;;5245097;28;20182;-48
2022/09/14 07:40:22;;;;;;;9.07;1.47;;;24.50;65.30;;;;;;5250843;28;20249;-49
2022/09/14 07:42:53;;;;;;;2.17;1.97;;;23.50;65.60;;;;;;5245198;28;20224;-49
2022/09/14 07:45:24;;;;;;;8.43;2.30;;;23.30;68.20;;;;;;5247757;28;20512;-49
2022/09/14 07:47:55;;;;;;;5.83;1.97;;;23.50;68.20;;;;;;5264416;28;20442;-47
2022/09/14 07:50:26;;;;;;;2.97;1.70;;;24.50;67.50;;;;;;5255713;28;20222;-48
2022/09/14 07:52:56;;;;;;;4.07;2.00;;;26.30;61.40;;;;;;5217955;28;20981;-47
2022/09/14 07:55:27;;;;;;;11.27;2.50;;;28.00;55.80;;;;;;5236804;28;20177;-48
2022/09/14 07:57:58;;;;;;;4.30;1.90;;;28.00;52.20;;;;;;5241691;28;20189;-49
2022/09/14 08:00:28;;;;;;;4.73;2.03;;;27.00;53.70;;;;;;5254673;28;20272;-48
2022/09/14 08:02:59;;;;;;;11.33;1.83;;;26.40;54.70;;;;;;5245229;28;20408;-50
2022/09/14 08:05:29;;;;;;;4.73;2.13;;;25.40;55.90;;;;;;5262216;28;20661;-48
2022/09/14 08:08:00;;;;;;;2.00;1.80;;;24.60;58.20;;;;;;5224728;28;20276;-49
2022/09/14 08:10:34;;;;;;;6.40;2.07;;;23.70;59.20;;;;;;5253479;28;20174;-49
2022/09/14 08:13:04;;;;;;;6.37;2.37;;;23.40;61.50;;;;;;5244984;28;20471;-48
2022/09/14 08:15:35;;;;;;;6.50;1.77;;;22.90;60.40;;;;;;5242660;28;20464;-49
2022/09/14 08:18:06;;;;;;;5.20;1.60;;;22.30;62.70;;;;;;5253242;28;20638;-48
2022/09/14 08:20:36;;;;;;;5.03;1.90;;;21.80;65.10;;;;;;5256262;28;20446;-50
2022/09/14 08:23:07;;;;;;;5.00;1.60;;;21.70;67.10;;;;;;5220292;28;20223;-48
2022/09/14 08:25:37;;;;;;;5.03;1.57;;;21.50;66.60;;;;;;5250546;28;20227;-48
2022/09/14 08:28:08;;;;;;;13.97;2.33;;;21.30;67.80;;;;;;5258366;28;20182;-48
2022/09/14 08:30:39;;;;;;;20.73;2.77;;;21.10;67.40;;;;;;5235410;28;20274;-52
2022/09/14 08:33:10;;;;;;;5.20;1.83;;;20.90;68.10;;;;;;5248820;28;20207;-54
2022/09/14 08:35:44;;;;;;;4.43;1.70;;;20.70;68.10;;;;;;5229809;28;21025;-53
2022/09/14 08:38:15;;;;;;;5.10;2.20;;;20.60;69.10;;;;;;5256250;28;20171;-52
2022/09/14 08:40:46;;;;;;;6.63;2.37;;;20.50;69.10;;;;;;5242164;28;20768;-52
2022/09/14 08:43:18;;;;;;;2.87;1.90;;;20.50;70.10;;;;;;5251619;28;20546;-51
2022/09/14 08:46:00;;;;;;;2.90;1.90;;;20.60;70.50;;;;;;5262869;28;20169;-52
2022/09/14 08:48:40;;;;;;;7.87;1.80;;;20.70;70.90;;;;;;5246921;28;20444;-52
2022/09/14 08:51:11;;;;;;;4.00;1.80;;;20.70;68.20;;;;;;5250855;28;20456;-51
2022/09/14 08:53:42;;;;;;;16.40;2.00;;;20.60;68.30;;;;;;5263256;28;20464;-53
2022/09/14 08:56:19;;;;;;;2.10;1.80;;;20.50;67.60;;;;;;5241771;28;20175;-52
2022/09/14 08:59:08;;;;;;;2.70;2.50;;;20.20;69.00;;;;;;5229763;28;20424;-54
2022/09/14 09:01:47;;;;;;;8.03;2.60;;;20.40;70.60;;;;;;5237378;28;20885;-53
2022/09/14 09:04:31;;;;;;;12.80;2.30;;;20.40;69.90;;;;;;5263158;28;20466;-48
2022/09/14 09:07:16;;;;;;;7.47;3.40;;;20.40;69.60;;;;;;5229879;28;20953;-51
2022/09/14 09:09:52;;;;;;;1.50;1.23;;;20.30;69.00;;;;;;5246244;28;21050;-49
2022/09/14 09:12:41;;;;;;;4.43;1.30;;;20.00;68.90;;;;;;5239215;28;20953;-48
2022/09/14 09:15:20;;;;;;;4.13;2.10;;;19.60;69.00;;;;;;5267469;28;20512;-50
2022/09/14 09:18:02;;;;;;;6.67;3.40;;;19.50;71.10;;;;;;5243576;28;20521;-50
2022/09/14 09:20:41;;;;;;;4.27;1.80;;;19.70;71.50;;;;;;5223057;28;20491;-49
2022/09/14 09:23:23;;;;;;;6.20;2.13;;;19.80;70.50;;;;;;5245589;28;20464;-49
2022/09/14 09:26:08;;;;;;;4.40;2.07;;;19.80;71.30;;;;;;5249963;28;20403;-50
2022/09/14 09:28:46;;;;;;;10.80;2.10;;;19.90;71.30;;;;;;5255557;28;20454;-50
2022/09/14 09:31:21;;;;;;;10.80;1.70;;;19.80;69.10;;;;;;5244694;28;20459;-48
2022/09/14 09:33:52;;;;;;;4.00;1.70;;;19.80;70.00;;;;;;5218226;28;20448;-49
2022/09/14 09:36:23;;;;;;;2.73;1.80;;;19.70;70.20;;;;;;5244703;28;20440;-49
2022/09/14 09:38:53;;;;;;;2.43;1.83;;;19.70;71.00;;;;;;5220561;28;20179;-49
2022/09/14 09:41:30;;;;;;;7.67;1.80;;;20.10;70.40;;;;;;5250971;28;20435;-50
2022/09/14 09:44:08;;;;;;;4.50;2.00;;;20.30;69.40;;;;;;5249986;28;20659;-49
2022/09/14 09:46:56;;;;;;;8.50;2.77;;;20.50;67.00;;;;;;5244458;28;20484;-47
2022/09/14 09:49:32;;;;;;;2.47;2.07;;;20.50;67.60;;;;;;5246946;28;20410;-48
2022/09/14 09:52:14;;;;;;;6.27;2.27;;;20.30;67.40;;;;;;5251251;28;21012;-47
2022/09/14 09:54:51;;;;;;;2.93;1.30;;;20.40;67.20;;;;;;5240486;28;20507;-47
2022/09/14 09:57:32;;;;;;;2.17;1.20;;;20.10;65.70;;;;;;5259483;28;20458;-47
2022/09/14 10:00:28;;;;;;;4.20;2.47;;;20.10;66.90;;;;;;5239039;28;20429;-49
2022/09/14 10:03:24;;;;;;;5.67;2.17;;;20.30;67.30;;;;;;5234781;28;20433;-47
2022/09/14 10:06:07;;;;;;;1.80;1.70;;;20.40;66.20;;;;;;5216774;28;20499;-50
2022/09/14 10:08:43;;;;;;;7.47;2.40;;;20.50;65.50;;;;;;5232714;28;20966;-49
2022/09/14 10:11:36;;;;;;;2.60;1.40;;;20.50;65.70;;;;;;5244519;28;20448;-49
2022/09/14 10:14:30;;;;;;;3.60;1.90;;;20.60;64.80;;;;;;5241632;28;20435;-49
2022/09/14 10:17:20;;;;;;;8.97;1.90;;;20.50;65.00;;;;;;5232802;28;20428;-50
2022/09/14 10:19:53;;;;;;;2.33;2.13;;;20.40;63.50;;;;;;5244907;28;20420;-49
2022/09/14 10:22:27;;;;;;;3.00;1.43;;;20.20;61.90;;;;;;5229548;28;20903;-49
2022/09/14 10:25:00;;;;;;;4.43;1.60;;;19.90;62.20;;;;;;5242747;28;20451;-49
2022/09/14 10:27:39;;;;;;;1.90;1.43;;;19.70;64.00;;;;;;5236738;28;20490;-48
2022/09/14 10:30:19;;;;;;;12.03;7.20;;;19.80;63.10;;;;;;5243334;28;20431;-48
2022/09/14 10:32:59;;;;;;;8.47;4.73;;;19.80;63.80;;;;;;5241465;28;20551;-49
2022/09/14 10:35:44;;;;;;;5.90;2.40;;;19.80;64.10;;;;;;5261472;28;20426;-48
2022/09/14 10:38:36;;;;;;;16.80;7.33;;;19.90;64.50;;;;;;5249147;28;20455;-49
2022/09/14 10:41:30;;;;;;;7.97;1.93;;;20.30;64.10;;;;;;5244195;28;20425;-48
2022/09/14 10:44:24;;;;;;;2.50;1.60;;;19.90;62.40;;;;;;5230173;28;21007;-55
2022/09/14 10:47:04;;;;;;;2.10;1.27;;;20.10;63.70;;;;;;5255810;28;20440;-50
2022/09/14 10:49:50;;;;;;;2.30;1.83;;;20.10;63.10;;;;;;5260109;28;20423;-50
2022/09/14 10:52:46;;;;;;;4.63;1.80;;;20.20;63.50;;;;;;5259342;28;20914;-51
2022/09/14 10:55:33;;;;;;;6.73;2.33;;;20.50;64.10;;;;;;5244160;28;20531;-50
2022/09/14 10:58:32;;;;;;;6.73;3.93;;;20.60;64.00;;;;;;5241609;28;21055;-50
2022/09/14 11:01:19;;;;;;;2.27;1.57;;;20.30;62.20;;;;;;5247082;28;20435;-49
2022/09/14 11:03:55;;;;;;;8.87;2.40;;;20.00;63.70;;;;;;5242797;28;20471;-47
2022/09/14 11:06:50;;;;;;;18.43;6.80;;;20.10;64.30;;;;;;5245823;28;20447;-50
2022/09/14 11:09:32;;;;;;;5.53;1.83;;;20.40;64.30;;;;;;5256713;28;20436;-50
2022/09/14 11:12:07;;;;;;;6.27;2.63;;;21.10;64.00;;;;;;5222911;28;20825;-49
2022/09/14 11:14:50;;;;;;;6.63;1.77;;;21.40;62.10;;;;;;5235477;28;20467;-50
2022/09/14 11:17:38;;;;;;;9.00;4.93;;;21.30;61.10;;;;;;5260173;28;20407;-52
2022/09/14 11:20:15;;;;;;;7.80;3.07;;;21.30;60.50;;;;;;5223664;28;20474;-50
2022/09/14 11:23:25;;;;;;;10.40;2.60;;;20.70;61.10;;;;;;5225849;28;20431;-48
2022/09/14 11:26:12;;;;;;;3.10;2.07;;;20.50;63.70;;;;;;5232305;28;20797;-50
2022/09/14 11:28:48;;;;;;;2.50;1.73;;;20.60;64.50;;;;;;5261184;28;20810;-49
2022/09/14 11:31:39;;;;;;;7.03;2.50;;;20.80;64.30;;;;;;5241108;28;20455;-49
2022/09/14 11:34:23;;;;;;;11.17;5.33;;;21.10;63.30;;;;;;5246709;28;20440;-48
2022/09/14 11:37:02;;;;;;;3.67;2.37;;;21.10;62.70;;;;;;5249002;28;20481;-50
2022/09/14 11:39:38;;;;;;;7.03;1.90;;;21.00;62.10;;;;;;5246341;28;20832;-49
2022/09/14 11:42:24;;;;;;;4.93;1.77;;;20.80;61.40;;;;;;5228387;28;20483;-48
2022/09/14 11:45:04;;;;;;;2.43;2.23;;;20.40;62.70;;;;;;5246212;28;20460;-50
2022/09/14 11:47:40;;;;;;;3.73;1.80;;;20.60;63.50;;;;;;5250381;28;21002;-50
2022/09/14 11:50:22;;;;;;;3.90;1.97;;;20.70;62.50;;;;;;5236103;28;20431;-51
2022/09/14 11:53:21;;;;;;;7.83;4.17;;;20.80;62.00;;;;;;5231903;28;20462;-48
2022/09/14 11:55:52;;;;;;;3.10;2.30;;;20.80;62.30;;;;;;5230950;28;20881;-48
2022/09/14 11:58:28;;;;;;;4.63;2.00;;;21.00;62.70;;;;;;5238338;28;20448;-49
2022/09/14 12:01:37;;;;;;;13.63;3.10;;;21.40;62.30;;;;;;5249554;28;20553;-49
2022/09/14 12:04:16;;;;;;;6.67;1.90;;;21.70;60.70;;;;;;5236332;28;20989;-49
2022/09/14 12:06:49;;;;;;;1.97;1.57;;;21.60;60.30;;;;;;5251626;28;20427;-49
2022/09/14 12:09:20;;;;;;;1.97;1.47;;;21.30;60.10;;;;;;5256303;28;20465;-50
2022/09/14 12:11:57;;;;;;;4.70;2.20;;;21.10;61.50;;;;;;5256587;28;20555;-49
2022/09/14 12:14:34;;;;;;;6.90;3.63;;;20.90;61.90;;;;;;5259747;28;20206;-48
2022/09/14 12:17:21;;;;;;;13.70;7.87;;;20.80;61.80;;;;;;5230960;28;20423;-48
2022/09/14 12:19:57;;;;;;;7.03;4.13;;;20.80;62.90;;;;;;5262825;28;20430;-50
2022/09/14 12:22:45;;;;;;;4.93;2.00;;;20.80;63.20;;;;;;5242483;28;20447;-48
2022/09/14 12:25:21;;;;;;;2.07;1.73;;;20.80;62.50;;;;;;5254178;28;20466;-48
2022/09/14 12:27:52;;;;;;;8.77;1.97;;;20.90;62.40;;;;;;5245705;28;20454;-48
2022/09/14 12:30:38;;;;;;;2.60;2.00;;;21.10;63.20;;;;;;5257111;28;20436;-49
2022/09/14 12:33:30;;;;;;;4.33;2.13;;;20.90;62.80;;;;;;5248669;28;20207;-48
2022/09/14 12:36:06;;;;;;;9.43;5.80;;;21.10;63.10;;;;;;5261902;28;20984;-48
2022/09/14 12:38:39;;;;;;;10.47;6.07;;;21.10;63.20;;;;;;5234546;28;20431;-49
2022/09/14 12:41:10;;;;;;;6.50;2.50;;;21.10;62.60;;;;;;5243764;28;20532;-49
2022/09/14 12:43:40;;;;;;;9.10;3.90;;;21.00;63.30;;;;;;5250179;28;20531;-49
2022/09/14 12:46:20;;;;;;;5.17;1.97;;;21.10;64.10;;;;;;5249077;28;20221;-47
2022/09/14 12:48:58;;;;;;;3.37;2.10;;;21.00;63.50;;;;;;5240608;28;20233;-46
2022/09/14 12:51:31;;;;;;;2.57;1.63;;;20.90;63.50;;;;;;5254076;28;20518;-47
2022/09/14 12:54:08;;;;;;;5.60;1.53;;;21.00;63.70;;;;;;5256852;28;20506;-46
2022/09/14 12:57:00;;;;;;;7.00;2.03;;;21.00;64.00;;;;;;5224561;28;20524;-49
2022/09/14 12:59:51;;;;;;;3.53;1.87;;;20.90;63.10;;;;;;5230302;28;20419;-47
2022/09/14 13:02:54;;;;;;;4.53;3.17;;;20.70;63.90;;;;;;5259119;28;20990;-47
2022/09/14 13:05:31;;;;;;;3.00;1.90;;;21.00;64.50;;;;;;5248402;28;20432;-51
2022/09/14 13:08:09;;;;;;;4.20;1.80;;;21.30;63.20;;;;;;5260622;28;20427;-47
2022/09/14 13:10:46;;;;;;;13.80;2.10;;;21.70;62.80;;;;;;5254998;28;20881;-46
2022/09/14 13:13:22;;;;;;;2.30;1.60;;;21.60;61.20;;;;;;5249885;28;20462;-46
2022/09/14 13:15:57;;;;;;;3.50;1.60;;;21.60;62.20;;;;;;5229601;28;20436;-52
2022/09/14 13:18:34;;;;;;;4.87;2.23;;;21.50;62.40;;;;;;5246255;28;20435;-54
2022/09/14 13:21:23;;;;;;;9.70;3.20;;;21.30;63.30;;;;;;5240098;28;20459;-53
2022/09/14 13:23:54;;;;;;;13.97;3.20;;;20.90;64.00;;;;;;5237576;28;20453;-53
2022/09/14 13:26:28;;;;;;;1.50;1.40;;;20.80;65.60;;;;;;5260350;28;20408;-51
2022/09/14 13:29:00;;;;;;;1.83;1.63;;;20.60;63.80;;;;;;5246338;28;20203;-53
2022/09/14 13:31:34;;;;;;;1.73;1.63;;;20.30;64.50;;;;;;5238350;28;20984;-51